Terminal Aerodrome Forecast
Issued by NWS Missoula, MT

Home | Current Version | Previous Version | Text Only | Print | Product List | Glossary On
Versions: 1 2 3 4 5 6 7 8 9 10 11 12
000
FTUS45 KMSO 282300
TAFBTM
TAF
KBTM 282329Z 2900/2924 17012KT P6SM VCSH SCT100 BKN150
     FM290400 VRB04KT P6SM SCT150=

USA.gov is the U.S. government's official web portal to all federal, state and local government web resources and services.